Search for airport 
image banner adimage banner adimage banner ad
image banner ad

L17 - Taft-Kern County

Located in Taft, United States

ICAO - L17, IATA -

Data provided by Airmate  

General information

Coordinates: N35°8'30" W119°26'16"
Elevation is 858 feet MSL.
Magnetic variation is 14° East
View others Airports in California

Operational data

Special qualification required
Current time UTC:
Current local time:
Weather at : KBFL - Meadows Field ( 47 km )
METAR: KBFL 141054Z AUTO 34005KT 9SM CLR 21/11 A2996 RMK AO2 SLP138 T02060111
TAF: KBFL 140520Z 1406/1506 32008KT P6SM SKC
View NOTAMs / SUP AIP / TFR affecting this airport [VIEW]
Communications frequencies: [VIEW]

Runways:

RWY identifierQFULength (ft)Width (ft)SurfaceLDA (ft)
0780°328360ASPH
25260°328360ASPH

Airport contact information

Address: Taft United States

Satellite view of L17